createdAt,value
2017-05-22T00:00:55.729Z,820.20
2017-05-22T00:01:56.343Z,820.16
2017-05-22T00:02:56.954Z,820.16
2017-05-22T00:03:57.571Z,820.18
2017-05-22T00:04:58.187Z,820.17
2017-05-22T00:05:58.851Z,820.16
2017-05-22T00:06:59.461Z,820.16
2017-05-22T00:08:00.080Z,820.15
2017-05-22T00:09:00.689Z,820.12
2017-05-22T00:10:01.299Z,820.14
2017-05-22T00:11:01.909Z,820.10
2017-05-22T00:12:02.527Z,820.08
2017-05-22T00:13:03.142Z,820.03
2017-05-22T00:14:03.749Z,820.07
2017-05-22T00:15:04.359Z,820.09
2017-05-22T00:16:04.976Z,820.06
2017-05-22T00:17:05.590Z,820.08
2017-05-22T00:18:06.200Z,820.10
2017-05-22T00:19:06.813Z,820.07
2017-05-22T00:20:07.428Z,820.10
2017-05-22T00:21:08.085Z,820.09
2017-05-22T00:22:08.697Z,820.10
2017-05-22T00:23:09.315Z,820.06
2017-05-22T00:24:09.926Z,820.06
2017-05-22T00:25:10.535Z,820.07
2017-05-22T00:26:11.157Z,820.06
2017-05-22T00:27:11.763Z,820.07
2017-05-22T00:28:12.376Z,820.05
2017-05-22T00:29:13.028Z,820.03
2017-05-22T00:30:13.642Z,820.05
2017-05-22T00:31:14.251Z,820.06
2017-05-22T00:32:14.863Z,820.04
2017-05-22T00:33:15.473Z,820.01
2017-05-22T00:34:16.085Z,820.03
2017-05-22T00:35:16.696Z,820.01
2017-05-22T00:36:17.306Z,820.02
2017-05-22T00:37:17.951Z,819.99
2017-05-22T00:38:18.567Z,819.96
2017-05-22T00:39:19.179Z,820.02
2017-05-22T00:40:19.822Z,819.96
2017-05-22T00:41:20.434Z,819.97
2017-05-22T00:42:21.051Z,820.00
2017-05-22T00:43:21.666Z,819.97
2017-05-22T00:44:22.274Z,819.94
2017-05-22T00:45:22.891Z,819.92
2017-05-22T00:46:23.550Z,819.95
2017-05-22T00:47:24.160Z,819.93
2017-05-22T00:48:24.776Z,819.92
2017-05-22T00:49:25.390Z,819.90
2017-05-22T00:50:26.000Z,819.87
2017-05-22T00:51:26.669Z,819.88
2017-05-22T00:52:27.278Z,819.85
2017-05-22T00:53:27.889Z,819.82
2017-05-22T00:54:28.502Z,819.81
2017-05-22T00:55:29.111Z,819.86
2017-05-22T00:56:29.728Z,819.83
2017-05-22T00:57:30.336Z,819.81
2017-05-22T00:58:30.949Z,819.84
2017-05-22T00:59:31.561Z,819.82
2017-05-22T01:00:32.173Z,819.80
2017-05-22T01:01:32.786Z,819.83
2017-05-22T01:02:33.428Z,819.81
2017-05-22T01:03:34.040Z,819.79
2017-05-22T01:04:34.651Z,819.79
2017-05-22T01:05:35.261Z,819.83
2017-05-22T01:06:35.878Z,819.78
2017-05-22T01:07:36.492Z,819.81
2017-05-22T01:08:37.137Z,819.81
2017-05-22T01:09:37.753Z,819.80
2017-05-22T01:10:38.361Z,819.84
2017-05-22T01:11:38.972Z,819.77
2017-05-22T01:12:39.584Z,819.81
2017-05-22T01:13:40.203Z,819.79
2017-05-22T01:14:40.813Z,819.81
2017-05-22T01:15:41.422Z,819.82
2017-05-22T01:16:42.083Z,819.79
2017-05-22T01:17:42.698Z,819.81
2017-05-22T01:18:43.306Z,819.77
2017-05-22T01:19:43.919Z,819.80
2017-05-22T01:20:44.530Z,819.78
2017-05-22T01:21:45.191Z,819.79
2017-05-22T01:22:45.803Z,819.75
2017-05-22T01:23:46.413Z,819.75
2017-05-22T01:24:47.029Z,819.73
2017-05-22T01:25:47.638Z,819.70
2017-05-22T01:26:48.299Z,819.74
2017-05-22T01:27:48.909Z,819.70
2017-05-22T01:28:49.525Z,819.71
2017-05-22T01:29:50.135Z,819.72
2017-05-22T01:30:50.747Z,819.70
2017-05-22T01:31:51.392Z,819.70
2017-05-22T01:32:52.004Z,819.73
2017-05-22T01:33:52.615Z,819.69
2017-05-22T01:34:53.232Z,819.70
2017-05-22T01:35:53.851Z,819.74
2017-05-22T01:36:54.455Z,819.71
2017-05-22T01:37:55.066Z,819.70
2017-05-22T01:38:55.676Z,819.72
2017-05-22T01:39:56.287Z,819.71
2017-05-22T01:40:56.900Z,819.67
2017-05-22T01:41:57.510Z,819.66
2017-05-22T01:42:58.123Z,819.70
2017-05-22T01:43:58.734Z,819.71
2017-05-22T01:44:59.348Z,819.67
2017-05-22T01:45:59.979Z,819.65
2017-05-22T01:47:00.566Z,819.67
2017-05-22T01:48:01.178Z,819.63
2017-05-22T01:49:01.796Z,819.66
2017-05-22T01:50:02.410Z,819.71
2017-05-22T01:51:03.056Z,819.67
2017-05-22T01:52:03.712Z,819.68
2017-05-22T01:53:04.331Z,819.67
2017-05-22T01:54:04.941Z,819.66
2017-05-22T01:55:05.557Z,819.66
2017-05-22T01:56:06.166Z,819.67
2017-05-22T01:57:06.827Z,819.67
2017-05-22T01:58:07.439Z,819.63
2017-05-22T01:59:08.049Z,819.64
2017-05-22T02:00:08.661Z,819.62
2017-05-22T02:01:09.272Z,819.62
2017-05-22T02:02:09.885Z,819.60
2017-05-22T02:03:10.498Z,819.60
2017-05-22T02:04:11.114Z,819.60
2017-05-22T02:05:11.758Z,819.57
2017-05-22T02:06:12.368Z,819.60
2017-05-22T02:07:12.980Z,819.63
2017-05-22T02:08:13.595Z,819.62
2017-05-22T02:09:14.208Z,819.58
2017-05-22T02:10:14.821Z,819.60
2017-05-22T02:11:15.434Z,819.57
2017-05-22T02:12:16.049Z,819.57
2017-05-22T02:13:16.659Z,819.58
2017-05-22T02:14:17.272Z,819.53
2017-05-22T02:15:17.916Z,819.55
2017-05-22T02:16:18.533Z,819.54
2017-05-22T02:17:19.141Z,819.56
2017-05-22T02:18:19.753Z,819.54
2017-05-22T02:19:20.364Z,819.53
2017-05-22T02:20:20.976Z,819.56
2017-05-22T02:21:21.623Z,819.52
2017-05-22T02:22:22.281Z,819.50
2017-05-22T02:23:22.897Z,819.47
2017-05-22T02:24:23.506Z,819.51
2017-05-22T02:25:24.118Z,819.46
2017-05-22T02:26:24.730Z,819.48
2017-05-22T02:27:25.346Z,819.46
2017-05-22T02:28:25.955Z,819.47
2017-05-22T02:29:26.565Z,819.45
2017-05-22T02:30:27.182Z,819.48
2017-05-22T02:31:27.791Z,819.50
2017-05-22T02:32:28.451Z,819.45
2017-05-22T02:33:29.064Z,819.43
2017-05-22T02:34:29.677Z,819.44
2017-05-22T02:35:30.292Z,819.46
2017-05-22T02:36:30.900Z,819.44
2017-05-22T02:37:31.512Z,819.44
2017-05-22T02:38:32.128Z,819.43
2017-05-22T02:39:32.735Z,819.42
2017-05-22T02:40:33.346Z,819.43
2017-05-22T02:41:33.956Z,819.41
2017-05-22T02:42:34.573Z,819.41
2017-05-22T02:43:35.188Z,819.40
2017-05-22T02:44:35.796Z,819.44
2017-05-22T02:45:36.468Z,819.41
2017-05-22T02:46:37.021Z,819.42
2017-05-22T02:47:37.629Z,819.38
2017-05-22T02:48:38.240Z,819.37
2017-05-22T02:49:38.851Z,819.36
2017-05-22T02:50:39.461Z,819.37
2017-05-22T02:51:40.071Z,819.36
2017-05-22T02:52:40.731Z,819.36
2017-05-22T02:53:41.344Z,819.36
2017-05-22T02:54:41.955Z,819.38
2017-05-22T02:55:42.565Z,819.35
2017-05-22T02:56:43.176Z,819.36
2017-05-22T02:57:43.791Z,819.39
2017-05-22T02:58:44.400Z,819.38
2017-05-22T02:59:45.015Z,819.41
2017-05-22T03:00:45.622Z,819.37
2017-05-22T03:01:46.233Z,819.40
2017-05-22T03:02:46.847Z,819.38
2017-05-22T03:03:47.491Z,819.38
2017-05-22T03:04:48.113Z,819.37
2017-05-22T03:05:48.753Z,819.36
2017-05-22T03:06:49.369Z,819.37
2017-05-22T03:07:49.988Z,819.39
2017-05-22T03:08:50.591Z,819.40
2017-05-22T03:09:51.207Z,819.42
2017-05-22T03:10:51.815Z,819.40
2017-05-22T03:11:52.425Z,819.42
2017-05-22T03:12:53.116Z,819.41
2017-05-22T03:13:53.727Z,819.42
2017-05-22T03:14:54.337Z,819.40
2017-05-22T03:15:54.983Z,819.39
2017-05-22T03:16:55.589Z,819.39
2017-05-22T03:17:56.200Z,819.39
2017-05-22T03:18:56.819Z,819.40
2017-05-22T03:19:57.423Z,819.38
2017-05-22T03:20:58.035Z,819.37
2017-05-22T03:21:58.648Z,819.40
2017-05-22T03:22:59.310Z,819.39
2017-05-22T03:23:59.920Z,819.38
2017-05-22T03:25:00.532Z,819.41
2017-05-22T03:26:01.141Z,819.43
2017-05-22T03:27:01.751Z,819.42
2017-05-22T03:28:02.412Z,819.38
2017-05-22T03:29:03.024Z,819.41
2017-05-22T03:30:03.636Z,819.40
2017-05-22T03:31:04.249Z,819.44
2017-05-22T03:32:04.857Z,819.42
2017-05-22T03:33:05.523Z,819.42
2017-05-22T03:34:06.130Z,819.44
2017-05-22T03:35:06.740Z,819.42
2017-05-22T03:36:07.352Z,819.41
2017-05-22T03:37:07.962Z,819.43
2017-05-22T03:38:08.622Z,819.48
2017-05-22T03:39:09.234Z,819.43
2017-05-22T03:40:09.843Z,819.46
2017-05-22T03:41:10.460Z,819.50
2017-05-22T03:42:11.067Z,819.45
2017-05-22T03:43:11.702Z,819.42
2017-05-22T03:44:12.288Z,819.45
2017-05-22T03:45:12.929Z,819.45
2017-05-22T03:46:13.546Z,819.42
2017-05-22T03:47:14.153Z,819.44
2017-05-22T03:48:14.763Z,819.44
2017-05-22T03:49:15.379Z,819.46
2017-05-22T03:50:15.993Z,819.46
2017-05-22T03:51:16.608Z,819.47
2017-05-22T03:52:17.215Z,819.51
2017-05-22T03:53:17.830Z,819.49
2017-05-22T03:54:18.439Z,819.49
2017-05-22T03:55:19.080Z,819.49
2017-05-22T03:56:19.690Z,819.50
2017-05-22T03:57:20.302Z,819.48
2017-05-22T03:58:20.969Z,819.49
2017-05-22T03:59:21.577Z,819.46
2017-05-22T04:00:22.194Z,819.45
2017-05-22T04:01:22.807Z,819.46
2017-05-22T04:02:23.416Z,819.47
2017-05-22T04:03:24.028Z,819.41
2017-05-22T04:04:24.640Z,819.45
2017-05-22T04:05:25.252Z,819.48
2017-05-22T04:06:25.863Z,819.48
2017-05-22T04:07:26.475Z,819.48
2017-05-22T04:08:27.085Z,819.49
2017-05-22T04:09:27.730Z,819.52
2017-05-22T04:10:28.340Z,819.52
2017-05-22T04:11:28.953Z,819.53
2017-05-22T04:12:29.565Z,819.56
2017-05-22T04:13:30.227Z,819.58
2017-05-22T04:14:30.839Z,819.57
2017-05-22T04:15:31.452Z,819.59
2017-05-22T04:16:32.064Z,819.59
2017-05-22T04:17:32.675Z,819.59
2017-05-22T04:18:33.287Z,819.59
2017-05-22T04:19:33.936Z,819.59
2017-05-22T04:20:34.552Z,819.60
2017-05-22T04:21:35.162Z,819.63
2017-05-22T04:22:35.773Z,819.60
2017-05-22T04:23:36.419Z,819.62
2017-05-22T04:24:37.033Z,819.60
2017-05-22T04:25:37.679Z,819.63
2017-05-22T04:26:38.290Z,819.59
2017-05-22T04:27:38.907Z,819.60
2017-05-22T04:28:39.563Z,819.61
2017-05-22T04:29:40.179Z,819.63
2017-05-22T04:30:40.790Z,819.62
2017-05-22T04:31:41.406Z,819.59
2017-05-22T04:32:42.023Z,819.61
2017-05-22T04:33:42.636Z,819.62
2017-05-22T04:34:43.247Z,819.62
2017-05-22T04:35:43.858Z,819.63
2017-05-22T04:36:44.469Z,819.63
2017-05-22T04:37:45.081Z,819.59
2017-05-22T04:38:45.750Z,819.63
2017-05-22T04:39:46.360Z,819.62
2017-05-22T04:40:46.971Z,819.63
2017-05-22T04:41:47.581Z,819.62
2017-05-22T04:42:48.225Z,819.63
2017-05-22T04:43:48.886Z,819.61
2017-05-22T04:44:49.499Z,819.62
2017-05-22T04:45:50.115Z,819.62
2017-05-22T04:46:50.724Z,819.62
2017-05-22T04:47:51.337Z,819.61
2017-05-22T04:48:51.950Z,819.61
2017-05-22T04:49:52.560Z,819.63
2017-05-22T04:50:53.171Z,819.63
2017-05-22T04:51:53.783Z,819.63
2017-05-22T04:52:54.403Z,819.61
2017-05-22T04:53:55.059Z,819.62
2017-05-22T04:54:55.672Z,819.63
2017-05-22T04:55:56.286Z,819.63
2017-05-22T04:56:56.902Z,819.62
2017-05-22T04:57:57.508Z,819.66
2017-05-22T04:58:58.170Z,819.66
2017-05-22T04:59:58.781Z,819.64
2017-05-22T05:00:59.431Z,819.65
2017-05-22T05:02:00.042Z,819.67
2017-05-22T05:03:00.650Z,819.64
2017-05-22T05:04:01.269Z,819.69
2017-05-22T05:05:01.879Z,819.69
2017-05-22T05:06:02.490Z,819.66
2017-05-22T05:07:03.136Z,819.67
2017-05-22T05:08:03.748Z,819.66
2017-05-22T05:09:04.359Z,819.70
2017-05-22T05:10:04.977Z,819.68
2017-05-22T05:11:05.585Z,819.68
2017-05-22T05:12:06.201Z,819.66
2017-05-22T05:13:06.808Z,819.67
2017-05-22T05:14:07.508Z,819.67
2017-05-22T05:15:08.125Z,819.67
2017-05-22T05:16:08.734Z,819.68
2017-05-22T05:17:09.346Z,819.66
2017-05-22T05:18:09.958Z,819.71
2017-05-22T05:19:10.620Z,819.66
2017-05-22T05:20:11.232Z,819.68
2017-05-22T05:21:11.848Z,819.68
2017-05-22T05:22:12.465Z,819.67
2017-05-22T05:23:13.074Z,819.70
2017-05-22T05:24:13.741Z,819.68
2017-05-22T05:25:14.352Z,819.69
2017-05-22T05:26:14.968Z,819.68
2017-05-22T05:27:15.582Z,819.68
2017-05-22T05:28:16.193Z,819.68
2017-05-22T05:29:16.862Z,819.65
2017-05-22T05:30:17.469Z,819.67
2017-05-22T05:31:18.082Z,819.67
2017-05-22T05:32:18.731Z,819.68
2017-05-22T05:33:19.381Z,819.67
2017-05-22T05:34:19.989Z,819.66
2017-05-22T05:35:20.601Z,819.67
2017-05-22T05:36:21.219Z,819.69
2017-05-22T05:37:21.835Z,819.63
2017-05-22T05:38:22.448Z,819.68
2017-05-22T05:39:23.066Z,819.66
2017-05-22T05:40:23.674Z,819.65
2017-05-22T05:41:24.286Z,819.71
2017-05-22T05:42:24.897Z,819.71
2017-05-22T05:43:25.507Z,819.67
2017-05-22T05:44:26.119Z,819.72
2017-05-22T05:45:26.755Z,819.68
2017-05-22T05:46:27.354Z,819.69
2017-05-22T05:47:27.969Z,819.73
2017-05-22T05:48:28.578Z,819.67
2017-05-22T05:49:29.192Z,819.69
2017-05-22T05:50:29.801Z,819.66
2017-05-22T05:51:30.419Z,819.67
2017-05-22T05:52:31.030Z,819.67
2017-05-22T05:53:31.642Z,819.70
2017-05-22T05:54:32.253Z,819.63
2017-05-22T05:55:32.865Z,819.64
2017-05-22T05:56:33.477Z,819.64
2017-05-22T05:57:34.089Z,819.61
2017-05-22T05:58:34.703Z,819.64
2017-05-22T05:59:35.365Z,819.64
2017-05-22T06:00:35.978Z,819.63
2017-05-22T06:01:36.592Z,819.65
2017-05-22T06:02:37.210Z,819.61
2017-05-22T06:03:37.827Z,819.62
2017-05-22T06:04:38.442Z,819.61
2017-05-22T06:05:39.089Z,819.60
2017-05-22T06:06:39.701Z,819.61
2017-05-22T06:07:40.316Z,819.66
2017-05-22T06:08:40.961Z,819.62
2017-05-22T06:09:41.595Z,819.64
2017-05-22T06:10:42.244Z,819.62
2017-05-22T06:11:42.855Z,819.60
2017-05-22T06:12:43.469Z,819.60
2017-05-22T06:13:44.081Z,819.59
2017-05-22T06:14:44.745Z,819.60
2017-05-22T06:15:45.359Z,819.62
2017-05-22T06:16:45.973Z,819.64
2017-05-22T06:17:46.587Z,819.62
2017-05-22T06:18:47.200Z,819.63
2017-05-22T06:19:47.862Z,819.60
2017-05-22T06:20:48.483Z,819.57
2017-05-22T06:21:49.095Z,819.62
2017-05-22T06:22:49.708Z,819.58
2017-05-22T06:23:50.322Z,819.57
2017-05-22T06:24:50.934Z,819.63
2017-05-22T06:25:51.547Z,819.62
2017-05-22T06:26:52.165Z,819.66
2017-05-22T06:27:52.777Z,819.59
2017-05-22T06:28:53.392Z,819.61
2017-05-22T06:29:54.004Z,819.58
2017-05-22T06:30:54.618Z,819.63
2017-05-22T06:31:55.231Z,819.58
2017-05-22T06:32:55.843Z,819.58
2017-05-22T06:33:56.457Z,819.57
2017-05-22T06:34:57.122Z,819.61
2017-05-22T06:35:57.739Z,819.61
2017-05-22T06:36:58.353Z,819.61
2017-05-22T06:37:58.967Z,819.62
2017-05-22T06:38:59.581Z,819.61
2017-05-22T06:40:00.196Z,819.63
2017-05-22T06:41:00.813Z,819.63
2017-05-22T06:42:01.429Z,819.63
2017-05-22T06:43:02.043Z,819.63
2017-05-22T06:44:02.659Z,819.64
2017-05-22T06:45:03.323Z,819.68
2017-05-22T06:46:03.938Z,819.70
2017-05-22T06:47:04.585Z,819.66
2017-05-22T06:48:05.203Z,819.65
2017-05-22T06:49:05.852Z,819.65
2017-05-22T06:50:06.523Z,819.62
2017-05-22T06:51:07.135Z,819.63
2017-05-22T06:52:07.754Z,819.67
2017-05-22T06:53:08.367Z,819.65
2017-05-22T06:54:08.983Z,819.64
2017-05-22T06:55:09.648Z,819.64
2017-05-22T06:56:10.263Z,819.64
2017-05-22T06:57:10.876Z,819.61
2017-05-22T06:58:11.493Z,819.64
2017-05-22T06:59:12.120Z,819.67
2017-05-22T07:00:12.776Z,819.61
2017-05-22T07:01:13.397Z,819.62
2017-05-22T07:02:14.010Z,819.63
2017-05-22T07:03:14.628Z,819.65
2017-05-22T07:04:15.242Z,819.65
2017-05-22T07:05:15.908Z,819.65
2017-05-22T07:06:16.524Z,819.66
2017-05-22T07:07:17.141Z,819.65
2017-05-22T07:08:17.757Z,819.68
2017-05-22T07:09:18.373Z,819.65
2017-05-22T07:10:18.994Z,819.66
2017-05-22T07:11:19.606Z,819.68
2017-05-22T07:12:20.224Z,819.67
2017-05-22T07:13:20.840Z,819.66
2017-05-22T07:14:21.462Z,819.67
2017-05-22T07:15:22.075Z,819.69
2017-05-22T07:16:22.696Z,819.65
2017-05-22T07:17:23.311Z,819.67
2017-05-22T07:18:23.926Z,819.67
2017-05-22T07:19:24.542Z,819.69
2017-05-22T07:20:25.159Z,819.69
2017-05-22T07:21:25.807Z,819.68
2017-05-22T07:22:26.423Z,819.66
2017-05-22T07:23:27.044Z,819.67
2017-05-22T07:24:27.658Z,819.70
2017-05-22T07:25:28.274Z,819.69
2017-05-22T07:26:28.889Z,819.67
2017-05-22T07:27:29.505Z,819.67
2017-05-22T07:28:30.123Z,819.67
2017-05-22T07:29:30.737Z,819.67
2017-05-22T07:30:31.404Z,819.66
2017-05-22T07:31:32.021Z,819.63
2017-05-22T07:32:32.637Z,819.66
2017-05-22T07:33:33.253Z,819.65
2017-05-22T07:34:33.875Z,819.66
2017-05-22T07:35:34.537Z,819.68
2017-05-22T07:36:35.152Z,819.67
2017-05-22T07:37:35.805Z,819.69
2017-05-22T07:38:36.418Z,819.68
2017-05-22T07:39:37.033Z,819.67
2017-05-22T07:40:37.649Z,819.70
2017-05-22T07:41:38.273Z,819.74
2017-05-22T07:42:38.891Z,819.75
2017-05-22T07:43:39.504Z,819.74
2017-05-22T07:44:40.125Z,819.73
2017-05-22T07:45:40.744Z,819.73
2017-05-22T07:46:41.365Z,819.74
2017-05-22T07:47:42.013Z,819.76
2017-05-22T07:48:42.634Z,819.79
2017-05-22T07:49:43.247Z,819.75
2017-05-22T07:50:43.864Z,819.78
2017-05-22T07:51:44.482Z,819.78
2017-05-22T07:52:45.102Z,819.73
2017-05-22T07:53:45.715Z,819.75
2017-05-22T07:54:46.331Z,819.76
2017-05-22T07:55:46.998Z,819.70
2017-05-22T07:56:47.612Z,819.72
2017-05-22T07:57:48.236Z,819.75
2017-05-22T07:58:48.849Z,819.74
2017-05-22T07:59:49.465Z,819.70
2017-05-22T08:00:50.086Z,819.76
2017-05-22T08:01:50.701Z,819.74
2017-05-22T08:02:51.322Z,819.79
2017-05-22T08:03:51.933Z,819.75
2017-05-22T08:04:52.548Z,819.77
2017-05-22T08:05:53.167Z,819.78
2017-05-22T08:06:53.785Z,819.71
2017-05-22T08:07:54.400Z,819.73
2017-05-22T08:08:55.019Z,819.69
2017-05-22T08:09:55.635Z,819.72
2017-05-22T08:10:56.250Z,819.71
2017-05-22T08:11:56.868Z,819.69
2017-05-22T08:12:57.491Z,819.69
2017-05-22T08:13:58.113Z,819.73
2017-05-22T08:14:58.725Z,819.75
2017-05-22T08:15:59.341Z,819.74
2017-05-22T08:16:59.965Z,819.73
2017-05-22T08:18:00.577Z,819.76
2017-05-22T08:19:01.195Z,819.69
2017-05-22T08:20:01.843Z,819.68
2017-05-22T08:21:02.459Z,819.73
2017-05-22T08:22:03.112Z,819.70
2017-05-22T08:23:03.732Z,819.72
2017-05-22T08:24:04.348Z,819.73
2017-05-22T08:25:04.966Z,819.71
2017-05-22T08:26:05.639Z,819.73
2017-05-22T08:27:06.288Z,819.69
2017-05-22T08:28:06.902Z,819.72
2017-05-22T08:29:07.521Z,819.74
2017-05-22T08:30:08.138Z,819.73
2017-05-22T08:31:08.806Z,819.72
2017-05-22T08:32:09.422Z,819.75
2017-05-22T08:33:10.038Z,819.72
2017-05-22T08:34:10.663Z,819.73
2017-05-22T08:35:11.277Z,819.73
2017-05-22T08:36:11.927Z,819.71
2017-05-22T08:37:12.547Z,819.73
2017-05-22T08:38:13.161Z,819.72
2017-05-22T08:39:13.778Z,819.75
2017-05-22T08:40:14.395Z,819.73
2017-05-22T08:41:15.013Z,819.73
2017-05-22T08:42:15.632Z,819.73
2017-05-22T08:43:16.283Z,819.69
2017-05-22T08:44:16.940Z,819.71
2017-05-22T08:45:17.559Z,819.71
2017-05-22T08:46:18.224Z,819.72
2017-05-22T08:47:18.842Z,819.75
2017-05-22T08:48:19.461Z,819.70
2017-05-22T08:49:20.080Z,819.72
2017-05-22T08:50:20.695Z,819.74
2017-05-22T08:51:21.362Z,819.73
2017-05-22T08:52:21.986Z,819.75
2017-05-22T08:53:22.607Z,819.75
2017-05-22T08:54:23.223Z,819.78
2017-05-22T08:55:23.841Z,819.73
2017-05-22T08:56:24.459Z,819.74
2017-05-22T08:57:25.083Z,819.77
2017-05-22T08:58:25.697Z,819.76
2017-05-22T08:59:26.316Z,819.75
2017-05-22T09:00:26.933Z,819.79
2017-05-22T09:01:27.599Z,819.78
2017-05-22T09:02:28.225Z,819.77
2017-05-22T09:03:28.840Z,819.75
2017-05-22T09:04:29.464Z,819.76
2017-05-22T09:05:30.083Z,819.76
2017-05-22T09:06:30.700Z,819.76
2017-05-22T09:07:31.317Z,819.78
2017-05-22T09:08:31.936Z,819.78
2017-05-22T09:09:32.558Z,819.77
2017-05-22T09:10:33.173Z,819.78
2017-05-22T09:11:33.797Z,819.78
2017-05-22T09:12:34.411Z,819.76
2017-05-22T09:13:35.031Z,819.81
2017-05-22T09:14:35.654Z,819.79
2017-05-22T09:15:36.268Z,819.78
2017-05-22T09:16:36.888Z,819.74
2017-05-22T09:17:37.506Z,819.76
2017-05-22T09:18:38.124Z,819.78
2017-05-22T09:19:38.742Z,819.79
2017-05-22T09:20:39.393Z,819.76
2017-05-22T09:21:40.066Z,819.83
2017-05-22T09:22:40.682Z,819.78
2017-05-22T09:23:41.301Z,819.73
2017-05-22T09:24:41.921Z,819.72
2017-05-22T09:25:42.537Z,819.75
2017-05-22T09:26:43.205Z,819.75
2017-05-22T09:27:43.830Z,819.75
2017-05-22T09:28:44.446Z,819.77
2017-05-22T09:29:45.065Z,819.73
2017-05-22T09:30:45.683Z,819.75
2017-05-22T09:31:46.299Z,819.74
2017-05-22T09:32:46.926Z,819.76
2017-05-22T09:33:47.546Z,819.73
2017-05-22T09:34:48.163Z,819.72
2017-05-22T09:35:48.781Z,819.70
2017-05-22T09:36:49.399Z,819.75
2017-05-22T09:37:50.025Z,819.74
2017-05-22T09:38:50.639Z,819.78
2017-05-22T09:39:51.265Z,819.73
2017-05-22T09:40:51.915Z,819.79
2017-05-22T09:41:52.582Z,819.76
2017-05-22T09:42:53.203Z,819.74
2017-05-22T09:43:53.825Z,819.79
2017-05-22T09:44:54.443Z,819.83
2017-05-22T09:45:55.062Z,819.78
2017-05-22T09:46:55.731Z,819.78
2017-05-22T09:47:56.351Z,819.81
2017-05-22T09:48:56.969Z,819.81
2017-05-22T09:49:57.588Z,819.75
2017-05-22T09:50:58.205Z,819.80
2017-05-22T09:51:58.874Z,819.79
2017-05-22T09:52:59.494Z,819.78
2017-05-22T09:54:00.115Z,819.77
2017-05-22T09:55:00.731Z,819.79
2017-05-22T09:56:01.351Z,819.76
2017-05-22T09:57:02.020Z,819.79
2017-05-22T09:58:02.638Z,819.82
2017-05-22T09:59:03.258Z,819.77
2017-05-22T10:00:03.876Z,819.81
2017-05-22T10:01:04.500Z,819.77
2017-05-22T10:02:05.123Z,819.72
2017-05-22T10:03:05.739Z,819.76
2017-05-22T10:04:06.360Z,819.69
2017-05-22T10:05:06.978Z,819.77
2017-05-22T10:06:07.597Z,819.83
2017-05-22T10:07:08.265Z,819.77
2017-05-22T10:08:08.883Z,819.74
2017-05-22T10:09:09.505Z,819.75
2017-05-22T10:10:10.122Z,819.77
2017-05-22T10:11:10.746Z,819.77
2017-05-22T10:12:11.363Z,819.73
2017-05-22T10:13:11.982Z,819.77
2017-05-22T10:14:12.601Z,819.76
2017-05-22T10:15:13.219Z,819.76
2017-05-22T10:16:13.866Z,819.73
2017-05-22T10:17:14.461Z,819.77
2017-05-22T10:18:15.087Z,819.75
2017-05-22T10:19:15.704Z,819.82
2017-05-22T10:20:16.323Z,819.76
2017-05-22T10:21:16.942Z,819.72
2017-05-22T10:22:17.610Z,819.75
2017-05-22T10:23:18.232Z,819.76
2017-05-22T10:24:18.854Z,819.72
2017-05-22T10:25:19.471Z,819.72
2017-05-22T10:26:20.090Z,819.77
2017-05-22T10:27:20.711Z,819.74
2017-05-22T10:28:21.332Z,819.71
2017-05-22T10:29:21.950Z,819.75
2017-05-22T10:30:22.575Z,819.74
2017-05-22T10:31:23.216Z,819.76
2017-05-22T10:32:23.810Z,819.75
2017-05-22T10:33:24.437Z,819.72
2017-05-22T10:34:25.055Z,819.77
2017-05-22T10:35:25.675Z,819.62
2017-05-22T10:36:26.294Z,819.67
2017-05-22T10:37:26.919Z,819.65
2017-05-22T10:38:27.537Z,819.65
2017-05-22T10:39:28.159Z,819.59
2017-05-22T10:40:28.781Z,819.63
2017-05-22T10:41:29.399Z,819.64
2017-05-22T10:42:30.068Z,819.62
2017-05-22T10:43:30.690Z,819.66
2017-05-22T10:44:31.311Z,819.64
2017-05-22T10:45:31.936Z,819.65
2017-05-22T10:46:32.554Z,819.63
2017-05-22T10:47:33.227Z,819.61
2017-05-22T10:48:33.846Z,819.62
2017-05-22T10:49:34.466Z,819.58
2017-05-22T10:50:35.119Z,819.62
2017-05-22T10:51:35.737Z,819.65
2017-05-22T10:52:36.358Z,819.60
2017-05-22T10:53:36.978Z,819.59
2017-05-22T10:54:37.606Z,819.64
2017-05-22T10:55:38.223Z,819.57
2017-05-22T10:56:38.849Z,819.59
2017-05-22T10:57:39.521Z,819.54
2017-05-22T10:58:40.139Z,819.52
2017-05-22T10:59:40.764Z,819.64
2017-05-22T11:00:41.383Z,819.63
2017-05-22T11:01:42.065Z,819.65
2017-05-22T11:02:42.710Z,819.66
2017-05-22T11:03:43.328Z,819.57
2017-05-22T11:04:43.948Z,819.48
2017-05-22T11:05:44.569Z,819.56
2017-05-22T11:06:45.187Z,819.57
2017-05-22T11:07:45.813Z,819.56
2017-05-22T11:08:46.432Z,819.51
2017-05-22T11:09:47.052Z,819.54
2017-05-22T11:10:47.672Z,819.56
2017-05-22T11:11:48.297Z,819.54
2017-05-22T11:12:48.921Z,819.53
2017-05-22T11:13:49.545Z,819.55
2017-05-22T11:14:50.162Z,819.51
2017-05-22T11:15:50.782Z,819.50
2017-05-22T11:16:51.402Z,819.53
2017-05-22T11:17:52.022Z,819.56
2017-05-22T11:18:52.643Z,819.57
2017-05-22T11:19:53.271Z,819.58
2017-05-22T11:20:53.890Z,819.51
2017-05-22T11:21:54.511Z,819.56
2017-05-22T11:22:55.135Z,819.57
2017-05-22T11:23:55.752Z,819.59
2017-05-22T11:24:56.374Z,819.55
2017-05-22T11:25:56.993Z,819.61
2017-05-22T11:26:57.641Z,819.53
2017-05-22T11:27:58.238Z,819.57
2017-05-22T11:28:58.892Z,819.60
2017-05-22T11:29:59.511Z,819.50
2017-05-22T11:31:00.166Z,819.48
2017-05-22T11:32:00.755Z,819.59
2017-05-22T11:33:01.431Z,819.57
2017-05-22T11:34:02.056Z,819.58
2017-05-22T11:35:02.676Z,819.55
2017-05-22T11:36:03.295Z,819.51
2017-05-22T11:37:03.917Z,819.55
2017-05-22T11:38:04.543Z,819.60
2017-05-22T11:39:05.160Z,819.56
2017-05-22T11:40:05.814Z,819.59
2017-05-22T11:41:06.444Z,819.53
2017-05-22T11:42:07.059Z,819.54
2017-05-22T11:43:07.702Z,819.60
2017-05-22T11:44:08.302Z,819.60
2017-05-22T11:45:08.923Z,819.62
2017-05-22T11:46:09.545Z,819.57
2017-05-22T11:47:10.167Z,819.58
2017-05-22T11:48:10.787Z,819.55
2017-05-22T11:49:11.409Z,819.60
2017-05-22T11:50:12.035Z,819.61
2017-05-22T11:51:12.660Z,819.57
2017-05-22T11:52:13.278Z,819.52
2017-05-22T11:53:13.950Z,819.50
2017-05-22T11:54:14.570Z,819.56
2017-05-22T11:55:15.196Z,819.55
2017-05-22T11:56:15.822Z,819.61
2017-05-22T11:57:16.440Z,819.59
2017-05-22T11:58:17.061Z,819.52
2017-05-22T11:59:17.681Z,819.55
2017-05-22T12:00:18.304Z,819.65
2017-05-22T12:01:18.926Z,819.57
2017-05-22T12:02:19.547Z,819.63
2017-05-22T12:03:20.221Z,819.49
2017-05-22T12:04:20.841Z,819.59
2017-05-22T12:05:21.464Z,819.56
2017-05-22T12:06:22.086Z,819.60
2017-05-22T12:07:22.718Z,819.56
2017-05-22T12:08:23.338Z,819.53
2017-05-22T12:09:24.000Z,819.48
2017-05-22T12:10:24.621Z,819.57
2017-05-22T12:11:25.242Z,819.54
2017-05-22T12:12:25.871Z,819.54
2017-05-22T12:13:26.546Z,819.54
2017-05-22T12:14:27.166Z,819.47
2017-05-22T12:15:27.791Z,819.52
2017-05-22T12:16:28.412Z,819.50
2017-05-22T12:17:29.034Z,819.54
2017-05-22T12:18:29.659Z,819.55
2017-05-22T12:19:30.288Z,819.55
2017-05-22T12:20:30.907Z,819.56
2017-05-22T12:21:31.533Z,819.53
2017-05-22T12:22:32.155Z,819.56
2017-05-22T12:23:32.806Z,819.57
2017-05-22T12:24:33.437Z,819.56
2017-05-22T12:25:34.056Z,819.52
2017-05-22T12:26:34.685Z,819.50
2017-05-22T12:27:35.305Z,819.56
2017-05-22T12:28:35.928Z,819.59
2017-05-22T12:29:36.558Z,819.56
2017-05-22T12:30:37.179Z,819.49
2017-05-22T12:31:37.803Z,819.52
2017-05-22T12:32:38.427Z,819.49
2017-05-22T12:33:39.135Z,819.52
2017-05-22T12:34:39.756Z,819.50
2017-05-22T12:35:40.381Z,819.49
2017-05-22T12:36:41.005Z,819.54